sensor_id;sensor_type;location;lat;lon;timestamp;pressure;altitude;pressure_sealevel;temperature;humidity
55373;BME280;41249;47.838;16.490;2023-01-25T00:01:55;101000.75;;;1.00;78.58
55373;BME280;41249;47.838;16.490;2023-01-25T00:04:22;100995.81;;;1.02;79.28
55373;BME280;41249;47.838;16.490;2023-01-25T00:06:49;101000.44;;;1.02;78.98
55373;BME280;41249;47.838;16.490;2023-01-25T00:09:16;100995.94;;;0.92;78.42
55373;BME280;41249;47.838;16.490;2023-01-25T00:11:43;101001.09;;;0.94;79.06
55373;BME280;41249;47.838;16.490;2023-01-25T00:14:10;101008.50;;;0.93;79.07
55373;BME280;41249;47.838;16.490;2023-01-25T00:16:38;101003.81;;;0.94;79.56
55373;BME280;41249;47.838;16.490;2023-01-25T00:19:06;101015.59;;;0.94;79.02
55373;BME280;41249;47.838;16.490;2023-01-25T00:21:33;101018.38;;;0.89;79.08
55373;BME280;41249;47.838;16.490;2023-01-25T00:24:01;101016.22;;;0.86;78.39
55373;BME280;41249;47.838;16.490;2023-01-25T00:26:32;101010.25;;;0.79;78.60
55373;BME280;41249;47.838;16.490;2023-01-25T00:28:59;101008.59;;;0.83;78.81
55373;BME280;41249;47.838;16.490;2023-01-25T00:31:36;101006.94;;;0.87;78.98
55373;BME280;41249;47.838;16.490;2023-01-25T00:39:24;101016.97;;;0.92;78.65
55373;BME280;41249;47.838;16.490;2023-01-25T00:41:51;101016.78;;;0.88;78.41
55373;BME280;41249;47.838;16.490;2023-01-25T00:44:18;101025.00;;;0.83;78.23
55373;BME280;41249;47.838;16.490;2023-01-25T00:46:44;101026.16;;;0.77;77.51
55373;BME280;41249;47.838;16.490;2023-01-25T00:49:31;101031.66;;;0.72;77.76
55373;BME280;41249;47.838;16.490;2023-01-25T00:51:59;101026.25;;;0.67;77.41
55373;BME280;41249;47.838;16.490;2023-01-25T00:54:25;101018.88;;;0.67;77.34
55373;BME280;41249;47.838;16.490;2023-01-25T00:56:52;101019.69;;;0.68;77.39
55373;BME280;41249;47.838;16.490;2023-01-25T00:59:20;101026.50;;;0.70;77.50
55373;BME280;41249;47.838;16.490;2023-01-25T01:01:47;101030.03;;;0.71;77.67
55373;BME280;41249;47.838;16.490;2023-01-25T01:04:14;101021.81;;;0.71;77.30
55373;BME280;41249;47.838;16.490;2023-01-25T01:06:41;101022.47;;;0.63;76.97
55373;BME280;41249;47.838;16.490;2023-01-25T01:09:15;101024.44;;;0.57;76.47
55373;BME280;41249;47.838;16.490;2023-01-25T01:11:42;101022.59;;;0.53;75.43
55373;BME280;41249;47.838;16.490;2023-01-25T01:14:09;101017.19;;;0.48;75.03
55373;BME280;41249;47.838;16.490;2023-01-25T01:16:36;101017.75;;;0.45;75.23
55373;BME280;41249;47.838;16.490;2023-01-25T01:19:03;101025.94;;;0.45;75.53
55373;BME280;41249;47.838;16.490;2023-01-25T01:21:30;101018.06;;;0.43;75.31
55373;BME280;41249;47.838;16.490;2023-01-25T01:23:56;101010.06;;;0.47;75.35
55373;BME280;41249;47.838;16.490;2023-01-25T01:26:23;101014.16;;;0.49;74.72
55373;BME280;41249;47.838;16.490;2023-01-25T01:28:50;101010.53;;;0.54;75.69
55373;BME280;41249;47.838;16.490;2023-01-25T01:31:19;101003.47;;;0.53;76.00
55373;BME280;41249;47.838;16.490;2023-01-25T01:33:50;101007.28;;;0.52;75.04
55373;BME280;41249;47.838;16.490;2023-01-25T01:36:19;101010.53;;;0.54;75.51
55373;BME280;41249;47.838;16.490;2023-01-25T01:38:45;101007.28;;;0.52;75.51
55373;BME280;41249;47.838;16.490;2023-01-25T01:41:13;101012.75;;;0.52;74.65
55373;BME280;41249;47.838;16.490;2023-01-25T01:43:41;101008.09;;;0.52;75.16
55373;BME280;41249;47.838;16.490;2023-01-25T01:46:14;101004.84;;;0.50;74.42
55373;BME280;41249;47.838;16.490;2023-01-25T01:48:47;100998.31;;;0.46;74.37
55373;BME280;41249;47.838;16.490;2023-01-25T01:51:23;101003.28;;;0.44;74.38
55373;BME280;41249;47.838;16.490;2023-01-25T01:56:53;100996.97;;;0.44;74.04
55373;BME280;41249;47.838;16.490;2023-01-25T01:59:23;100999.25;;;0.37;73.97
55373;BME280;41249;47.838;16.490;2023-01-25T02:01:51;100998.22;;;0.33;73.79
55373;BME280;41249;47.838;16.490;2023-01-25T02:04:19;100996.03;;;0.30;73.35
55373;BME280;41249;47.838;16.490;2023-01-25T02:06:52;100999.41;;;0.21;73.54
55373;BME280;41249;47.838;16.490;2023-01-25T02:09:23;100999.97;;;0.18;73.20
55373;BME280;41249;47.838;16.490;2023-01-25T02:11:51;100994.56;;;0.13;73.32
55373;BME280;41249;47.838;16.490;2023-01-25T02:14:19;100989.13;;;0.13;73.26
55373;BME280;41249;47.838;16.490;2023-01-25T02:16:46;100992.13;;;0.12;72.80
55373;BME280;41249;47.838;16.490;2023-01-25T02:19:25;100986.94;;;0.10;72.44
55373;BME280;41249;47.838;16.490;2023-01-25T02:21:55;100986.44;;;0.08;72.54
55373;BME280;41249;47.838;16.490;2023-01-25T02:24:27;100979.91;;;0.04;72.24
55373;BME280;41249;47.838;16.490;2023-01-25T02:26:56;100975.00;;;0.01;71.70
55373;BME280;41249;47.838;16.490;2023-01-25T02:29:23;100977.50;;;-0.02;72.02
55373;BME280;41249;47.838;16.490;2023-01-25T02:31:58;100972.31;;;-0.04;71.89
55373;BME280;41249;47.838;16.490;2023-01-25T02:34:25;100979.47;;;-0.08;71.72
55373;BME280;41249;47.838;16.490;2023-01-25T02:36:52;100960.91;;;-0.11;72.19
55373;BME280;41249;47.838;16.490;2023-01-25T02:39:18;100956.03;;;-0.14;72.09
55373;BME280;41249;47.838;16.490;2023-01-25T02:41:46;100958.22;;;-0.16;72.18
55373;BME280;41249;47.838;16.490;2023-01-25T02:44:20;100959.06;;;-0.15;72.24
55373;BME280;41249;47.838;16.490;2023-01-25T02:46:48;100953.34;;;-0.19;72.05
55373;BME280;41249;47.838;16.490;2023-01-25T02:49:16;100952.78;;;-0.16;72.37
55373;BME280;41249;47.838;16.490;2023-01-25T02:51:45;100939.75;;;-0.24;72.59
55373;BME280;41249;47.838;16.490;2023-01-25T02:54:13;100951.81;;;-0.30;72.38
55373;BME280;41249;47.838;16.490;2023-01-25T02:56:41;100940.94;;;-0.35;71.88
55373;BME280;41249;47.838;16.490;2023-01-25T02:59:08;100944.22;;;-0.38;72.62
55373;BME280;41249;47.838;16.490;2023-01-25T03:01:37;100944.22;;;-0.38;72.56
55373;BME280;41249;47.838;16.490;2023-01-25T03:04:05;100929.81;;;-0.44;72.10
55373;BME280;41249;47.838;16.490;2023-01-25T03:06:33;100922.78;;;-0.50;72.20
55373;BME280;41249;47.838;16.490;2023-01-25T03:09:00;100923.91;;;-0.56;72.12
55373;BME280;41249;47.838;16.490;2023-01-25T03:11:27;100928.56;;;-0.61;72.29
55373;BME280;41249;47.838;16.490;2023-01-25T03:13:54;100910.06;;;-0.64;71.96
55373;BME280;41249;47.838;16.490;2023-01-25T03:16:20;100917.69;;;-0.66;72.42
55373;BME280;41249;47.838;16.490;2023-01-25T03:18:47;100912.25;;;-0.66;72.38
55373;BME280;41249;47.838;16.490;2023-01-25T03:21:16;100908.19;;;-0.69;72.44
55373;BME280;41249;47.838;16.490;2023-01-25T03:23:44;100900.59;;;-0.72;72.39
55373;BME280;41249;47.838;16.490;2023-01-25T03:26:16;100898.94;;;-0.73;72.67
55373;BME280;41249;47.838;16.490;2023-01-25T03:28:44;100895.66;;;-0.70;72.52
55373;BME280;41249;47.838;16.490;2023-01-25T03:31:13;100899.78;;;-0.72;72.26
55373;BME280;41249;47.838;16.490;2023-01-25T03:33:41;100885.31;;;-0.73;72.39
55373;BME280;41249;47.838;16.490;2023-01-25T03:36:08;100883.97;;;-0.75;72.51
55373;BME280;41249;47.838;16.490;2023-01-25T03:38:35;100883.16;;;-0.76;72.03
55373;BME280;41249;47.838;16.490;2023-01-25T03:41:02;100887.56;;;-0.80;72.59
55373;BME280;41249;47.838;16.490;2023-01-25T03:43:30;100894.38;;;-0.82;72.48
55373;BME280;41249;47.838;16.490;2023-01-25T03:45:59;100884.88;;;-0.85;72.26
55373;BME280;41249;47.838;16.490;2023-01-25T03:48:27;100886.50;;;-0.84;72.40
55373;BME280;41249;47.838;16.490;2023-01-25T03:50:58;100884.56;;;-0.83;72.18
55373;BME280;41249;47.838;16.490;2023-01-25T03:53:27;100878.84;;;-0.82;72.51
55373;BME280;41249;47.838;16.490;2023-01-25T03:55:57;100878.56;;;-0.80;71.90
55373;BME280;41249;47.838;16.490;2023-01-25T03:58:24;100885.63;;;-0.74;72.20
55373;BME280;41249;47.838;16.490;2023-01-25T04:00:53;100875.19;;;-0.67;73.04
55373;BME280;41249;47.838;16.490;2023-01-25T04:03:21;100878.44;;;-0.65;73.27
55373;BME280;41249;47.838;16.490;2023-01-25T04:05:48;100868.34;;;-0.65;72.80
55373;BME280;41249;47.838;16.490;2023-01-25T04:08:14;100878.44;;;-0.65;72.50
55373;BME280;41249;47.838;16.490;2023-01-25T04:10:41;100887.72;;;-0.66;72.94
55373;BME280;41249;47.838;16.490;2023-01-25T04:13:08;100878.47;;;-0.70;72.57
55373;BME280;41249;47.838;16.490;2023-01-25T04:15:35;100885.28;;;-0.68;72.34
55373;BME280;41249;47.838;16.490;2023-01-25T04:18:01;100864.03;;;-0.71;72.64
55373;BME280;41249;47.838;16.490;2023-01-25T04:20:28;100872.19;;;-0.71;72.63
55373;BME280;41249;47.838;16.490;2023-01-25T04:22:55;100875.22;;;-0.72;72.88
55373;BME280;41249;47.838;16.490;2023-01-25T04:25:21;100877.13;;;-0.73;72.13
55373;BME280;41249;47.838;16.490;2023-01-25T04:27:48;100880.72;;;-0.77;72.10
55373;BME280;41249;47.838;16.490;2023-01-25T04:30:15;100873.41;;;-0.82;72.32
55373;BME280;41249;47.838;16.490;2023-01-25T04:32:42;100885.13;;;-0.81;72.33
55373;BME280;41249;47.838;16.490;2023-01-25T04:35:08;100890.03;;;-0.83;72.65
55373;BME280;41249;47.838;16.490;2023-01-25T04:37:36;100884.31;;;-0.82;72.65
55373;BME280;41249;47.838;16.490;2023-01-25T04:40:03;100874.78;;;-0.84;72.82
55373;BME280;41249;47.838;16.490;2023-01-25T04:42:30;100878.59;;;-0.85;73.16
55373;BME280;41249;47.838;16.490;2023-01-25T04:44:56;100872.34;;;-0.91;72.96
55373;BME280;41249;47.838;16.490;2023-01-25T04:47:23;100880.34;;;-0.99;73.06
55373;BME280;41249;47.838;16.490;2023-01-25T04:49:49;100875.97;;;-1.00;73.15
55373;BME280;41249;47.838;16.490;2023-01-25T04:52:16;100872.72;;;-1.02;73.31
55373;BME280;41249;47.838;16.490;2023-01-25T04:54:42;100884.69;;;-1.03;73.51
55373;BME280;41249;47.838;16.490;2023-01-25T04:57:09;100873.25;;;-1.00;73.72
55373;BME280;41249;47.838;16.490;2023-01-25T04:59:35;100869.69;;;-1.01;73.62
55373;BME280;41249;47.838;16.490;2023-01-25T05:02:02;100869.69;;;-1.01;73.29
55373;BME280;41249;47.838;16.490;2023-01-25T05:04:28;100873.25;;;-1.00;73.99
55373;BME280;41249;47.838;16.490;2023-01-25T05:06:55;100860.16;;;-1.03;73.83
55373;BME280;41249;47.838;16.490;2023-01-25T05:09:22;100857.44;;;-1.03;73.78
55373;BME280;41249;47.838;16.490;2023-01-25T05:11:48;100858.78;;;-1.01;73.64
55373;BME280;41249;47.838;16.490;2023-01-25T05:14:15;100854.97;;;-1.00;73.64
55373;BME280;41249;47.838;16.490;2023-01-25T05:16:41;100861.25;;;-0.99;73.75
55373;BME280;41249;47.838;16.490;2023-01-25T05:19:09;100869.44;;;-0.99;74.02
55373;BME280;41249;47.838;16.490;2023-01-25T05:21:35;100873.22;;;-0.95;74.77
55373;BME280;41249;47.838;16.490;2023-01-25T05:24:21;100855.25;;;-0.96;74.74
55373;BME280;41249;47.838;16.490;2023-01-25T05:26:47;100862.88;;;-0.98;74.64
55373;BME280;41249;47.838;16.490;2023-01-25T05:29:28;100856.59;;;-0.94;74.83
55373;BME280;41249;47.838;16.490;2023-01-25T05:31:55;100859.00;;;-0.92;75.16
55373;BME280;41249;47.838;16.490;2023-01-25T05:34:21;100857.13;;;-0.92;75.05
55373;BME280;41249;47.838;16.490;2023-01-25T05:36:48;100858.72;;;-0.91;75.29
55373;BME280;41249;47.838;16.490;2023-01-25T05:39:15;100862.53;;;-0.87;75.96
55373;BME280;41249;47.838;16.490;2023-01-25T05:41:42;100869.88;;;-0.87;75.77
55373;BME280;41249;47.838;16.490;2023-01-25T05:44:08;100865.00;;;-0.90;75.92
55373;BME280;41249;47.838;16.490;2023-01-25T05:46:35;100857.94;;;-0.91;76.23
55373;BME280;41249;47.838;16.490;2023-01-25T05:49:02;100867.72;;;-0.90;75.82
55373;BME280;41249;47.838;16.490;2023-01-25T05:51:28;100860.09;;;-0.93;76.15
55373;BME280;41249;47.838;16.490;2023-01-25T05:53:55;100869.34;;;-0.89;76.01
55373;BME280;41249;47.838;16.490;2023-01-25T05:56:22;100862.78;;;-0.88;76.35
55373;BME280;41249;47.838;16.490;2023-01-25T05:58:56;100868.81;;;-0.86;76.31
55373;BME280;41249;47.838;16.490;2023-01-25T06:01:24;100866.06;;;-0.86;76.45
55373;BME280;41249;47.838;16.490;2023-01-25T06:03:51;100871.22;;;-0.85;76.64
55373;BME280;41249;47.838;16.490;2023-01-25T06:06:18;100875.59;;;-0.84;76.85
55373;BME280;41249;47.838;16.490;2023-01-25T06:08:46;100872.53;;;-0.77;77.16
55373;BME280;41249;47.838;16.490;2023-01-25T06:11:15;100870.84;;;-0.73;77.47
55373;BME280;41249;47.838;16.490;2023-01-25T06:13:43;100875.50;;;-0.74;77.70
55373;BME280;41249;47.838;16.490;2023-01-25T06:16:10;100884.22;;;-0.72;77.27
55373;BME280;41249;47.838;16.490;2023-01-25T06:18:36;100883.06;;;-0.66;77.75
55373;BME280;41249;47.838;16.490;2023-01-25T06:21:03;100873.03;;;-0.70;77.85
55373;BME280;41249;47.838;16.490;2023-01-25T06:23:30;100885.28;;;-0.68;77.66
55373;BME280;41249;47.838;16.490;2023-01-25T06:26:09;100883.38;;;-0.67;78.05
55373;BME280;41249;47.838;16.490;2023-01-25T06:28:36;100865.38;;;-0.68;77.80
55373;BME280;41249;47.838;16.490;2023-01-25T06:31:08;100887.47;;;-0.70;77.66
55373;BME280;41249;47.838;16.490;2023-01-25T06:33:36;100875.78;;;-0.75;78.00
55373;BME280;41249;47.838;16.490;2023-01-25T06:36:14;100868.91;;;-0.68;78.29
55373;BME280;41249;47.838;16.490;2023-01-25T06:38:41;100867.81;;;-0.67;78.05
55373;BME280;41249;47.838;16.490;2023-01-25T06:41:09;100888.78;;;-0.62;78.03
55373;BME280;41249;47.838;16.490;2023-01-25T06:43:37;100879.50;;;-0.61;78.82
55373;BME280;41249;47.838;16.490;2023-01-25T06:46:06;100881.66;;;-0.58;78.75
55373;BME280;41249;47.838;16.490;2023-01-25T06:48:33;100878.41;;;-0.60;78.74
55373;BME280;41249;47.838;16.490;2023-01-25T06:51:06;100873.47;;;-0.58;78.92
55373;BME280;41249;47.838;16.490;2023-01-25T06:53:35;100873.19;;;-0.57;78.74
55373;BME280;41249;47.838;16.490;2023-01-25T06:56:05;100865.53;;;-0.55;78.94
55373;BME280;41249;47.838;16.490;2023-01-25T06:58:35;100866.88;;;-0.52;79.20
55373;BME280;41249;47.838;16.490;2023-01-25T07:01:20;100869.34;;;-0.56;78.94
55373;BME280;41249;47.838;16.490;2023-01-25T07:03:48;100870.19;;;-0.55;78.98
55373;BME280;41249;47.838;16.490;2023-01-25T07:06:15;100875.34;;;-0.54;79.22
55373;BME280;41249;47.838;16.490;2023-01-25T07:08:41;100875.09;;;-0.57;78.58
55373;BME280;41249;47.838;16.490;2023-01-25T07:11:10;100873.72;;;-0.55;79.06
55373;BME280;41249;47.838;16.490;2023-01-25T07:13:40;100868.50;;;-0.51;79.13
55373;BME280;41249;47.838;16.490;2023-01-25T07:16:11;100873.38;;;-0.48;79.11
55373;BME280;41249;47.838;16.490;2023-01-25T07:18:38;100864.13;;;-0.47;79.53
55373;BME280;41249;47.838;16.490;2023-01-25T07:21:26;100865.19;;;-0.48;79.07
55373;BME280;41249;47.838;16.490;2023-01-25T07:23:52;100865.19;;;-0.48;79.07
55373;BME280;41249;47.838;16.490;2023-01-25T07:26:21;100864.63;;;-0.45;79.28
55373;BME280;41249;47.838;16.490;2023-01-25T07:28:48;100865.16;;;-0.43;79.14
55373;BME280;41249;47.838;16.490;2023-01-25T07:31:19;100870.03;;;-0.40;79.28
55373;BME280;41249;47.838;16.490;2023-01-25T07:33:47;100867.03;;;-0.38;79.20
55373;BME280;41249;47.838;16.490;2023-01-25T07:36:15;100862.38;;;-0.38;79.27
55373;BME280;41249;47.838;16.490;2023-01-25T07:38:41;100857.50;;;-0.41;79.06
55373;BME280;41249;47.838;16.490;2023-01-25T07:41:08;100867.28;;;-0.35;79.18
55373;BME280;41249;47.838;16.490;2023-01-25T07:43:34;100877.03;;;-0.29;78.60
55373;BME280;41249;47.838;16.490;2023-01-25T07:46:03;100868.25;;;-0.26;78.97
55373;BME280;41249;47.838;16.490;2023-01-25T07:48:30;100873.72;;;-0.26;78.90
55373;BME280;41249;47.838;16.490;2023-01-25T07:50:59;100873.16;;;-0.23;78.90
55373;BME280;41249;47.838;16.490;2023-01-25T07:53:45;100872.13;;;-0.27;78.49
55373;BME280;41249;47.838;16.490;2023-01-25T07:56:12;100881.34;;;-0.23;78.85
55373;BME280;41249;47.838;16.490;2023-01-25T07:58:39;100879.09;;;-0.16;79.11
55373;BME280;41249;47.838;16.490;2023-01-25T08:01:17;100873.56;;;-0.11;78.83
55373;BME280;41249;47.838;16.490;2023-01-25T08:03:45;100878.97;;;-0.06;78.62
55373;BME280;41249;47.838;16.490;2023-01-25T08:06:12;100887.41;;;-0.02;78.46
55373;BME280;41249;47.838;16.490;2023-01-25T08:08:41;100886.91;;;-0.04;78.99
55373;BME280;41249;47.838;16.490;2023-01-25T08:11:17;100887.69;;;-0.04;78.98
55373;BME280;41249;47.838;16.490;2023-01-25T08:13:45;100884.13;;;0.01;78.51
55373;BME280;41249;47.838;16.490;2023-01-25T08:16:13;100888.13;;;0.08;78.76
55373;BME280;41249;47.838;16.490;2023-01-25T08:18:39;100887.00;;;0.09;79.11
55373;BME280;41249;47.838;16.490;2023-01-25T08:21:09;100886.44;;;0.12;78.50
55373;BME280;41249;47.838;16.490;2023-01-25T08:23:35;100880.69;;;0.14;78.98
55373;BME280;41249;47.838;16.490;2023-01-25T08:26:03;100878.72;;;0.19;78.61
55373;BME280;41249;47.838;16.490;2023-01-25T08:28:30;100882.47;;;0.23;78.24
55373;BME280;41249;47.838;16.490;2023-01-25T08:31:11;100877.06;;;0.18;78.86
55373;BME280;41249;47.838;16.490;2023-01-25T08:33:38;100877.00;;;0.23;78.83
55373;BME280;41249;47.838;16.490;2023-01-25T08:36:05;100881.84;;;0.32;78.71
55373;BME280;41249;47.838;16.490;2023-01-25T08:38:34;100868.06;;;0.42;78.91
55373;BME280;41249;47.838;16.490;2023-01-25T08:41:15;100877.31;;;0.46;78.36
55373;BME280;41249;47.838;16.490;2023-01-25T08:43:43;100881.09;;;0.50;78.71
55373;BME280;41249;47.838;16.490;2023-01-25T08:46:10;100869.06;;;0.51;78.86
55373;BME280;41249;47.838;16.490;2023-01-25T08:48:37;100872.53;;;0.56;78.58
55373;BME280;41249;47.838;16.490;2023-01-25T08:51:06;100857.91;;;0.66;78.75
55373;BME280;41249;47.838;16.490;2023-01-25T08:53:33;100865.97;;;0.76;78.55
55373;BME280;41249;47.838;16.490;2023-01-25T08:56:08;100867.84;;;0.80;78.89
55373;BME280;41249;47.838;16.490;2023-01-25T08:58:43;100863.97;;;0.81;78.60
55373;BME280;41249;47.838;16.490;2023-01-25T09:01:12;100865.28;;;0.89;79.15
55373;BME280;41249;47.838;16.490;2023-01-25T09:03:41;100859.22;;;0.92;79.14
55373;BME280;41249;47.838;16.490;2023-01-25T09:06:08;100859.16;;;0.97;79.07
55373;BME280;41249;47.838;16.490;2023-01-25T09:08:36;100860.91;;;1.07;79.20
55373;BME280;41249;47.838;16.490;2023-01-25T09:11:14;100858.09;;;1.12;79.43
55373;BME280;41249;47.838;16.490;2023-01-25T09:13:41;100855.59;;;1.15;79.21
55373;BME280;41249;47.838;16.490;2023-01-25T09:16:16;100851.97;;;1.20;79.78
55373;BME280;41249;47.838;16.490;2023-01-25T09:18:44;100860.38;;;1.23;79.28
55373;BME280;41249;47.838;16.490;2023-01-25T09:21:16;100856.53;;;1.24;79.52
55373;BME280;41249;47.838;16.490;2023-01-25T09:23:46;100851.00;;;1.29;79.80
55373;BME280;41249;47.838;16.490;2023-01-25T09:26:32;100849.50;;;1.37;79.77
55373;BME280;41249;47.838;16.490;2023-01-25T09:28:59;100851.13;;;1.38;79.93
55373;BME280;41249;47.838;16.490;2023-01-25T09:31:26;100844.84;;;1.37;79.89
55373;BME280;41249;47.838;16.490;2023-01-25T09:33:54;100836.56;;;1.42;79.91
55373;BME280;41249;47.838;16.490;2023-01-25T09:36:22;100837.06;;;1.44;79.91
55373;BME280;41249;47.838;16.490;2023-01-25T09:38:49;100836.16;;;1.49;79.84
55373;BME280;41249;47.838;16.490;2023-01-25T09:47:20;100826.03;;;1.49;79.62
55373;BME280;41249;47.838;16.490;2023-01-25T09:53:15;100824.84;;;1.56;79.55
55373;BME280;41249;47.838;16.490;2023-01-25T09:55:49;100823.31;;;1.63;79.89
55373;BME280;41249;47.838;16.490;2023-01-25T09:58:19;100810.44;;;1.64;79.49
55373;BME280;41249;47.838;16.490;2023-01-25T10:00:51;100809.84;;;1.67;80.11
55373;BME280;41249;47.838;16.490;2023-01-25T10:03:25;100801.22;;;1.73;79.72
55373;BME280;41249;47.838;16.490;2023-01-25T10:05:55;100801.34;;;1.82;80.01
55373;BME280;41249;47.838;16.490;2023-01-25T10:08:30;100799.50;;;1.91;80.14
55373;BME280;41249;47.838;16.490;2023-01-25T10:11:13;100794.03;;;1.91;79.60
55373;BME280;41249;47.838;16.490;2023-01-25T10:13:42;100791.13;;;1.87;79.82
55373;BME280;41249;47.838;16.490;2023-01-25T10:16:18;100789.69;;;1.90;79.17
55373;BME280;41249;47.838;16.490;2023-01-25T10:19:17;100773.03;;;1.86;79.65
55373;BME280;41249;47.838;16.490;2023-01-25T10:22:34;100781.84;;;1.83;79.33
55373;BME280;41249;47.838;16.490;2023-01-25T10:28:08;100778.94;;;1.93;79.14
55373;BME280;41249;47.838;16.490;2023-01-25T10:33:17;100769.50;;;1.86;78.49
55373;BME280;41249;47.838;16.490;2023-01-25T10:35:47;100770.13;;;1.83;79.25
55373;BME280;41249;47.838;16.490;2023-01-25T10:38:19;100762.41;;;1.85;78.83
55373;BME280;41249;47.838;16.490;2023-01-25T10:41:06;100758.34;;;1.82;78.27
55373;BME280;41249;47.838;16.490;2023-01-25T10:43:35;100760.38;;;1.77;78.30
55373;BME280;41249;47.838;16.490;2023-01-25T10:46:01;100756.72;;;1.68;77.91
55373;BME280;41249;47.838;16.490;2023-01-25T10:48:32;100751.03;;;1.64;77.81
55373;BME280;41249;47.838;16.490;2023-01-25T10:51:00;100751.53;;;1.66;77.79
55373;BME280;41249;47.838;16.490;2023-01-25T10:53:37;100742.72;;;1.69;77.59
55373;BME280;41249;47.838;16.490;2023-01-25T10:58:38;100743.94;;;1.49;76.61
55373;BME280;41249;47.838;16.490;2023-01-25T11:01:30;100738.63;;;1.39;76.42
55373;BME280;41249;47.838;16.490;2023-01-25T11:03:58;100742.28;;;1.35;76.51
55373;BME280;41249;47.838;16.490;2023-01-25T11:06:46;100739.94;;;1.28;76.21
55373;BME280;41249;47.838;16.490;2023-01-25T11:11:59;100726.56;;;1.27;76.19
55373;BME280;41249;47.838;16.490;2023-01-25T11:14:29;100724.56;;;1.32;76.52
55373;BME280;41249;47.838;16.490;2023-01-25T11:16:58;100717.44;;;1.31;76.44
55373;BME280;41249;47.838;16.490;2023-01-25T11:19:33;100713.59;;;1.32;76.17
55373;BME280;41249;47.838;16.490;2023-01-25T11:22:03;100706.81;;;1.30;75.84
55373;BME280;41249;47.838;16.490;2023-01-25T11:24:32;100696.28;;;1.37;75.85
55373;BME280;41249;47.838;16.490;2023-01-25T11:27:17;100698.00;;;1.46;75.73
55373;BME280;41249;47.838;16.490;2023-01-25T11:29:45;100700.16;;;1.49;76.01
55373;BME280;41249;47.838;16.490;2023-01-25T11:32:17;100694.16;;;1.47;75.81
55373;BME280;41249;47.838;16.490;2023-01-25T11:34:49;100700.97;;;1.50;75.63
55373;BME280;41249;47.838;16.490;2023-01-25T11:40:27;100688.78;;;1.70;76.16
55373;BME280;41249;47.838;16.490;2023-01-25T11:43:37;100677.13;;;1.78;76.11
55373;BME280;41249;47.838;16.490;2023-01-25T11:46:33;100676.41;;;1.86;76.13
55373;BME280;41249;47.838;16.490;2023-01-25T11:51:41;100670.91;;;1.86;76.34
55373;BME280;41249;47.838;16.490;2023-01-25T11:54:27;100659.56;;;1.92;76.46
55373;BME280;41249;47.838;16.490;2023-01-25T12:13:55;100605.75;;;2.10;76.40
55373;BME280;41249;47.838;16.490;2023-01-25T12:16:42;100604.25;;;2.04;76.15
55373;BME280;41249;47.838;16.490;2023-01-25T12:19:20;100600.09;;;2.06;75.88
55373;BME280;41249;47.838;16.490;2023-01-25T12:27:30;100598.22;;;2.15;76.26
55373;BME280;41249;47.838;16.490;2023-01-25T12:30:27;100583.66;;;2.06;75.84
55373;BME280;41249;47.838;16.490;2023-01-25T12:33:08;100583.47;;;2.03;76.38
55373;BME280;41249;47.838;16.490;2023-01-25T12:35:42;100576.38;;;2.02;76.24
55373;BME280;41249;47.838;16.490;2023-01-25T12:38:17;100569.25;;;2.01;75.95
55373;BME280;41249;47.838;16.490;2023-01-25T12:43:47;100565.91;;;2.04;75.82
55373;BME280;41249;47.838;16.490;2023-01-25T12:46:44;100568.53;;;2.09;75.58
55373;BME280;41249;47.838;16.490;2023-01-25T12:52:19;100556.31;;;1.93;75.52
55373;BME280;41249;47.838;16.490;2023-01-25T12:54:47;100557.75;;;1.90;75.21
55373;BME280;41249;47.838;16.490;2023-01-25T12:57:35;100544.97;;;1.86;75.02
55373;BME280;41249;47.838;16.490;2023-01-25T13:03:10;100549.09;;;1.97;75.67
55373;BME280;41249;47.838;16.490;2023-01-25T13:05:55;100548.97;;;2.02;75.99
55373;BME280;41249;47.838;16.490;2023-01-25T13:11:21;100533.28;;;1.94;75.58
55373;BME280;41249;47.838;16.490;2023-01-25T13:13:49;100537.28;;;1.88;75.83
55373;BME280;41249;47.838;16.490;2023-01-25T13:16:38;100535.22;;;1.93;75.91
55373;BME280;41249;47.838;16.490;2023-01-25T13:19:18;100538.03;;;2.02;76.36
55373;BME280;41249;47.838;16.490;2023-01-25T13:21:46;100528.88;;;2.06;76.92
55373;BME280;41249;47.838;16.490;2023-01-25T13:24:29;100523.59;;;2.10;76.68
55373;BME280;41249;47.838;16.490;2023-01-25T13:31:53;100522.16;;;2.12;76.85
55373;BME280;41249;47.838;16.490;2023-01-25T13:37:17;100527.06;;;2.02;75.89
55373;BME280;41249;47.838;16.490;2023-01-25T13:42:35;100538.53;;;2.04;76.38
55373;BME280;41249;47.838;16.490;2023-01-25T13:45:13;100528.38;;;2.04;76.46
55373;BME280;41249;47.838;16.490;2023-01-25T13:47:42;100530.63;;;2.02;75.80
55373;BME280;41249;47.838;16.490;2023-01-25T13:50:15;100524.81;;;2.04;76.13
55373;BME280;41249;47.838;16.490;2023-01-25T13:53:03;100521.47;;;2.07;76.14
55373;BME280;41249;47.838;16.490;2023-01-25T13:55:37;100523.72;;;2.05;76.24
55373;BME280;41249;47.838;16.490;2023-01-25T13:58:15;100519.97;;;2.01;76.06
55373;BME280;41249;47.838;16.490;2023-01-25T14:00:47;100519.19;;;2.00;76.08
55373;BME280;41249;47.838;16.490;2023-01-25T14:03:15;100523.03;;;1.99;76.00
55373;BME280;41249;47.838;16.490;2023-01-25T14:05:49;100519.97;;;2.01;76.13
55373;BME280;41249;47.838;16.490;2023-01-25T14:08:17;100519.34;;;2.04;76.38
55373;BME280;41249;47.838;16.490;2023-01-25T14:10:45;100519.47;;;1.99;76.20
55373;BME280;41249;47.838;16.490;2023-01-25T14:13:14;100516.72;;;1.99;75.94
55373;BME280;41249;47.838;16.490;2023-01-25T14:15:57;100514.31;;;1.97;76.12
55373;BME280;41249;47.838;16.490;2023-01-25T14:18:30;100515.63;;;2.00;76.12
55373;BME280;41249;47.838;16.490;2023-01-25T14:21:20;100513.53;;;2.05;76.32
55373;BME280;41249;47.838;16.490;2023-01-25T14:23:48;100521.63;;;2.10;76.77